Strona główna
METAR-TAF:

METAR-TAF

Lotnisko :

Delaware, Ohio, Stany Zjednoczone

Szerokość geograficzna: 40-16-47N, Długość geograficzna: 83-06-53W, wysokość: 288 m

Aktualna obserwacja pogody

Raport powstał 12 minut temu, godzina 20:15 UTC
Wiatr 6 kt od południowy wschód
Temperatura 3°C
Wilgotność 56%
Ciśnienie 1029 hPa
Widzialność: 16.1 km
bezchmurnie

METAR: KDLZ 072015Z AUTO 14006KT 10SM CLR 03/M05 A3038 RMK AO2

czas: 15:27 (20:27 UTC)


TAF: brakujący

Obserwacja i prognoza pogody dla ponad 4000 lotnisk (raport METAR i TAF).

Dostępne stacje oznaczono żółtymi i czerwonymi punktami na mapie.

Najedź kursorem aby zobaczyć nazwę stacji.

Kliknij aby zobaczyć obserwacje i prognozy pogody.

Aby zmienić mapę: kliknij na zielony przycisk z czarnym krzyżykiem, aby powiększyć; na zielony przycisk z myślnikiem, aby pomniejszyć; na zielone strzałki, aby przejść do map sąsiednich.


METAR-TAF: